Time,TemperatureF,DewpointF,PressureIn,WindDirection,WindDirectionDegrees,WindSpeedMPH,WindSpeedGustMPH,Humidity,HourlyPrecipIn,Conditions,Clouds,dailyrainin,SoftwareType,DateUTC
2013-06-27 00:14:00,73.9,73.3,29.70,SSW,202,0.0,-999.0,98,-99.99,,,0.00,Acu-Link.com,2013-06-27 05:14:00,
2013-06-27 00:29:00,73.8,73.2,29.69,ESE,112,0.0,-999.0,98,-99.99,,,0.00,Acu-Link.com,2013-06-27 05:29:00,
2013-06-27 00:44:00,73.6,73.0,29.69,SE,135,0.0,-999.0,98,-99.99,,,0.00,Acu-Link.com,2013-06-27 05:44:00,
2013-06-27 00:59:00,73.4,72.8,29.69,SW,225,0.0,-999.0,98,-99.99,,,0.00,Acu-Link.com,2013-06-27 05:59:00,
2013-06-27 01:14:00,73.4,72.8,29.69,ENE,67,0.0,-999.0,98,-99.99,,,0.00,Acu-Link.com,2013-06-27 06:14:00,
2013-06-27 01:30:00,73.4,72.8,29.70,NE,45,0.0,-999.0,98,-99.99,,,0.00,Acu-Link.com,2013-06-27 06:30:00,
2013-06-27 01:45:00,73.6,73.0,29.70,ENE,67,0.0,-999.0,98,-99.99,,,0.00,Acu-Link.com,2013-06-27 06:45:00,
2013-06-27 02:00:00,73.4,72.8,29.70,SSW,202,0.0,-999.0,98,-99.99,,,0.00,Acu-Link.com,2013-06-27 07:00:00,
2013-06-27 02:15:00,73.4,72.8,29.70,West,270,0.0,-999.0,98,-99.99,,,0.00,Acu-Link.com,2013-06-27 07:15:00,
2013-06-27 02:30:00,73.6,73.0,29.70,East,90,0.0,-999.0,98,-99.99,,,0.00,Acu-Link.com,2013-06-27 07:30:00,
2013-06-27 02:45:00,73.6,73.0,29.70,SE,135,0.0,-999.0,98,-99.99,,,0.00,Acu-Link.com,2013-06-27 07:45:00,
2013-06-27 03:00:00,73.6,73.0,29.71,East,90,0.0,-999.0,98,-99.99,,,0.00,Acu-Link.com,2013-06-27 08:00:00,
2013-06-27 03:15:00,73.6,73.0,29.71,East,90,0.0,-999.0,98,-99.99,,,0.00,Acu-Link.com,2013-06-27 08:15:00,
2013-06-27 03:31:00,73.4,72.8,29.71,ESE,112,0.0,-999.0,98,-99.99,,,0.00,Acu-Link.com,2013-06-27 08:31:00,
2013-06-27 03:46:00,73.2,72.6,29.71,SSE,157,0.0,-999.0,98,-99.99,,,0.00,Acu-Link.com,2013-06-27 08:46:00,
2013-06-27 04:01:00,73.0,72.4,29.71,ESE,112,0.0,-999.0,98,-99.99,,,0.00,Acu-Link.com,2013-06-27 09:01:00,
2013-06-27 04:16:00,72.9,72.3,29.72,NE,45,0.0,-999.0,98,-99.99,,,0.00,Acu-Link.com,2013-06-27 09:16:00,
2013-06-27 04:31:00,73.0,72.4,29.71,SSE,157,0.0,-999.0,98,-99.99,,,0.00,Acu-Link.com,2013-06-27 09:31:00,
2013-06-27 04:47:00,73.0,72.4,29.72,SSE,157,0.0,-999.0,98,-99.99,,,0.00,Acu-Link.com,2013-06-27 09:47:00,
2013-06-27 05:02:00,72.7,72.1,29.72,SE,135,0.0,-999.0,98,-99.99,,,0.00,Acu-Link.com,2013-06-27 10:02:00,
2013-06-27 05:17:00,73.0,72.4,29.73,ESE,112,1.7,-999.0,98,-99.99,,,0.00,Acu-Link.com,2013-06-27 10:17:00,
2013-06-27 05:32:00,73.0,72.4,29.73,NNE,22,0.0,-999.0,98,-99.99,,,0.00,Acu-Link.com,2013-06-27 10:32:00,
2013-06-27 05:47:00,73.2,72.6,29.73,SSE,157,1.7,-999.0,98,-99.99,,,0.00,Acu-Link.com,2013-06-27 10:47:00,
2013-06-27 06:02:00,73.2,72.6,29.73,East,90,0.0,-999.0,98,-99.99,,,0.00,Acu-Link.com,2013-06-27 11:02:00,
2013-06-27 06:17:00,73.4,72.8,29.73,ENE,67,0.0,-999.0,98,-99.99,,,0.00,Acu-Link.com,2013-06-27 11:17:00,
2013-06-27 06:32:00,73.8,73.2,29.73,NNW,337,2.7,-999.0,98,-99.99,,,0.00,Acu-Link.com,2013-06-27 11:32:00,
2013-06-27 06:47:00,74.1,73.5,29.73,SE,135,1.1,-999.0,98,-99.99,,,0.00,Acu-Link.com,2013-06-27 11:47:00,
2013-06-27 07:03:00,74.7,74.1,29.73,NNE,22,1.1,-999.0,98,-99.99,,,0.00,Acu-Link.com,2013-06-27 12:03:00,
2013-06-27 07:18:00,75.6,75.0,29.72,West,270,2.2,-999.0,98,-99.99,,,0.00,Acu-Link.com,2013-06-27 12:18:00,
2013-06-27 07:33:00,76.1,75.5,29.73,South,180,2.2,-999.0,98,-99.99,,,0.00,Acu-Link.com,2013-06-27 12:33:00,
2013-06-27 07:48:00,77.5,76.9,29.73,ESE,112,2.2,-999.0,98,-99.99,,,0.00,Acu-Link.com,2013-06-27 12:48:00,
2013-06-27 08:03:00,78.3,77.7,29.73,NW,315,5.8,-999.0,98,-99.99,,,0.00,Acu-Link.com,2013-06-27 13:03:00,
2013-06-27 08:18:00,79.2,78.6,29.73,SSW,202,6.8,-999.0,98,-99.99,,,0.00,Acu-Link.com,2013-06-27 13:18:00,
2013-06-27 08:33:00,80.1,79.5,29.73,West,270,3.7,-999.0,98,-99.99,,,0.00,Acu-Link.com,2013-06-27 13:33:00,
2013-06-27 08:48:00,81.0,78.1,29.73,NW,315,3.7,-999.0,91,-99.99,,,0.00,Acu-Link.com,2013-06-27 13:48:00,
2013-06-27 09:03:00,81.9,77.3,29.74,SSW,202,4.2,-999.0,86,-99.99,,,0.00,Acu-Link.com,2013-06-27 14:03:00,
2013-06-27 09:19:00,82.8,76.7,29.72,WNW,292,4.7,-999.0,82,-99.99,,,0.00,Acu-Link.com,2013-06-27 14:19:00,
2013-06-27 09:34:00,84.0,77.1,29.73,East,90,4.7,-999.0,80,-99.99,,,0.00,Acu-Link.com,2013-06-27 14:34:00,
2013-06-27 09:49:00,84.7,77.4,29.73,SW,225,2.2,-999.0,79,-99.99,,,0.00,Acu-Link.com,2013-06-27 14:49:00,
2013-06-27 10:04:00,85.6,78.7,29.72,NE,45,4.7,-999.0,80,-99.99,,,0.00,Acu-Link.com,2013-06-27 15:04:00,
2013-06-27 10:19:00,86.4,78.7,29.72,NNW,337,3.7,-999.0,78,-99.99,,,0.00,Acu-Link.com,2013-06-27 15:19:00,
2013-06-27 10:34:00,86.9,78.8,29.73,NW,315,3.7,-999.0,77,-99.99,,,0.00,Acu-Link.com,2013-06-27 15:34:00,
2013-06-27 10:49:00,86.9,78.8,29.72,NW,315,3.7,-999.0,77,-99.99,,,0.00,Acu-Link.com,2013-06-27 15:49:00,
2013-06-27 11:04:00,88.0,79.1,29.73,ENE,67,4.2,-999.0,75,-99.99,,,0.00,Acu-Link.com,2013-06-27 16:04:00,
2013-06-27 11:19:00,88.0,77.4,29.72,South,180,6.3,-999.0,71,-99.99,,,0.00,Acu-Link.com,2013-06-27 16:19:00,
2013-06-27 11:35:00,88.9,77.8,29.72,NW,315,2.2,-999.0,70,-99.99,,,0.00,Acu-Link.com,2013-06-27 16:35:00,
2013-06-27 11:50:00,89.4,77.4,29.71,SSW,202,5.8,-999.0,68,-99.99,,,0.00,Acu-Link.com,2013-06-27 16:50:00,
2013-06-27 12:05:00,90.0,77.1,29.71,North,0,1.7,-999.0,66,-99.99,,,0.00,Acu-Link.com,2013-06-27 17:05:00,
2013-06-27 12:20:00,91.9,77.5,29.71,WNW,292,2.7,-999.0,63,-99.99,,,0.00,Acu-Link.com,2013-06-27 17:20:00,
2013-06-27 12:35:00,90.9,76.0,29.70,SSW,202,3.7,-999.0,62,-99.99,,,0.00,Acu-Link.com,2013-06-27 17:35:00,
2013-06-27 12:50:00,91.9,76.0,29.69,SE,135,6.3,-999.0,60,-99.99,,,0.00,Acu-Link.com,2013-06-27 17:50:00,
2013-06-27 13:05:00,92.3,76.9,29.69,East,90,2.7,-999.0,61,-99.99,,,0.00,Acu-Link.com,2013-06-27 18:05:00,
2013-06-27 13:20:00,91.2,76.8,29.69,South,180,4.7,-999.0,63,-99.99,,,0.00,Acu-Link.com,2013-06-27 18:20:00,
2013-06-27 13:35:00,93.7,77.7,29.68,West,270,3.7,-999.0,60,-99.99,,,0.00,Acu-Link.com,2013-06-27 18:35:00,
2013-06-27 13:51:00,94.6,78.5,29.68,SSW,202,5.3,-999.0,60,-99.99,,,0.00,Acu-Link.com,2013-06-27 18:51:00,
2013-06-27 14:06:00,93.7,77.7,29.67,West,270,3.7,-999.0,60,-99.99,,,0.00,Acu-Link.com,2013-06-27 19:06:00,
2013-06-27 14:21:00,95.7,79.0,29.68,NE,45,2.7,-999.0,59,-99.99,,,0.00,Acu-Link.com,2013-06-27 19:21:00,
2013-06-27 14:36:00,96.1,78.4,29.67,SSW,202,4.2,-999.0,57,-99.99,,,0.00,Acu-Link.com,2013-06-27 19:36:00,
2013-06-27 14:51:00,96.1,78.9,29.66,ESE,112,2.7,-999.0,58,-99.99,,,0.00,Acu-Link.com,2013-06-27 19:51:00,
2013-06-27 15:06:00,95.2,77.5,29.66,WSW,247,5.8,-999.0,57,-99.99,,,0.00,Acu-Link.com,2013-06-27 20:06:00,
2013-06-27 15:21:00,96.1,78.4,29.66,WNW,292,3.7,-999.0,57,-99.99,,,0.00,Acu-Link.com,2013-06-27 20:21:00,
2013-06-27 15:36:00,97.0,78.1,29.65,NNW,337,3.2,-999.0,55,-99.99,,,0.00,Acu-Link.com,2013-06-27 20:36:00,
2013-06-27 15:51:00,95.9,78.7,29.65,ESE,112,5.8,-999.0,58,-99.99,,,0.00,Acu-Link.com,2013-06-27 20:51:00,
2013-06-27 16:22:00,96.1,80.4,29.65,SE,135,2.7,-999.0,61,-99.99,,,0.00,Acu-Link.com,2013-06-27 21:22:00,
2013-06-27 16:37:00,94.6,79.5,29.65,NE,45,2.7,-999.0,62,-99.99,,,0.00,Acu-Link.com,2013-06-27 21:37:00,
2013-06-27 16:52:00,93.7,79.2,29.65,West,270,2.2,-999.0,63,-99.99,,,0.00,Acu-Link.com,2013-06-27 21:52:00,
2013-06-27 17:23:00,96.6,79.9,29.64,NE,45,2.7,-999.0,59,-99.99,,,0.00,Acu-Link.com,2013-06-27 22:23:00,
2013-06-27 18:08:00,95.9,80.7,29.63,South,180,1.7,-999.0,62,-99.99,,,0.00,Acu-Link.com,2013-06-27 23:08:00,
2013-06-27 18:23:00,95.7,81.0,29.63,East,90,1.1,-999.0,63,-99.99,,,0.00,Acu-Link.com,2013-06-27 23:23:00,
2013-06-27 18:38:00,95.9,80.7,29.62,WSW,247,1.7,-999.0,62,-99.99,,,0.00,Acu-Link.com,2013-06-27 23:38:00,
2013-06-27 19:08:00,92.8,81.1,29.62,SSE,157,1.1,-999.0,69,-99.99,,,0.00,Acu-Link.com,2013-06-28 00:08:00,
2013-06-27 19:39:00,92.7,80.6,29.62,West,270,1.1,-999.0,68,-99.99,,,0.00,Acu-Link.com,2013-06-28 00:39:00,
2013-06-27 19:54:00,91.0,80.3,29.63,WNW,292,0.0,-999.0,71,-99.99,,,0.00,Acu-Link.com,2013-06-28 00:54:00,
2013-06-27 20:09:00,88.0,79.9,29.63,WNW,292,0.0,-999.0,77,-99.99,,,0.00,Acu-Link.com,2013-06-28 01:09:00,
2013-06-27 20:24:00,86.0,80.2,29.64,South,180,0.0,-999.0,83,-99.99,,,0.00,Acu-Link.com,2013-06-28 01:24:00,
2013-06-27 20:54:00,83.8,80.2,29.64,West,270,0.0,-999.0,89,-99.99,,,0.00,Acu-Link.com,2013-06-28 01:54:00,
2013-06-27 21:09:00,82.4,79.8,29.63,West,270,0.0,-999.0,92,-99.99,,,0.00,Acu-Link.com,2013-06-28 02:09:00,
2013-06-27 21:24:00,81.7,79.8,29.64,NNE,22,0.0,-999.0,94,-99.99,,,0.00,Acu-Link.com,2013-06-28 02:24:00,
2013-06-27 21:40:00,81.3,80.7,29.64,SE,135,0.0,-999.0,98,-99.99,,,0.00,Acu-Link.com,2013-06-28 02:40:00,
2013-06-27 21:55:00,80.6,80.0,29.64,SSE,157,0.0,-999.0,98,-99.99,,,0.00,Acu-Link.com,2013-06-28 02:55:00,
2013-06-27 22:10:00,80.1,79.5,29.65,SE,135,0.0,-999.0,98,-99.99,,,0.00,Acu-Link.com,2013-06-28 03:10:00,
2013-06-27 22:25:00,79.7,79.1,29.66,South,180,0.0,-999.0,98,-99.99,,,0.00,Acu-Link.com,2013-06-28 03:25:00,
2013-06-27 22:40:00,79.2,78.6,29.65,South,180,0.0,-999.0,98,-99.99,,,0.00,Acu-Link.com,2013-06-28 03:40:00,
2013-06-27 23:10:00,78.3,77.7,29.64,ENE,67,0.0,-999.0,98,-99.99,,,0.00,Acu-Link.com,2013-06-28 04:10:00,
2013-06-27 23:25:00,78.1,77.5,29.65,South,180,0.0,-999.0,98,-99.99,,,0.00,Acu-Link.com,2013-06-28 04:25:00,
2013-06-27 23:40:00,78.1,77.5,29.65,NW,315,0.0,-999.0,98,-99.99,,,0.00,Acu-Link.com,2013-06-28 04:40:00,
2013-06-27 23:56:00,77.7,77.1,29.64,South,180,0.0,-999.0,98,-99.99,,,0.00,Acu-Link.com,2013-06-28 04:56:00,